createdAt,value
2023-10-08T00:02:31.296Z,76.64
2023-10-08T00:05:40.476Z,76.62
2023-10-08T00:08:42.524Z,76.63
2023-10-08T00:11:45.172Z,76.87
2023-10-08T00:14:50.062Z,77.13
2023-10-08T00:17:55.192Z,77.03
2023-10-08T00:21:07.392Z,77.09
2023-10-08T00:24:09.778Z,77.08
2023-10-08T00:27:15.298Z,77.09
2023-10-08T00:30:20.166Z,76.99
2023-10-08T00:33:22.369Z,76.83
2023-10-08T00:36:24.914Z,76.85
2023-10-08T00:39:27.572Z,76.86
2023-10-08T00:42:30.858Z,76.80
2023-10-08T00:45:32.806Z,77.00
2023-10-08T00:48:36.649Z,76.73
2023-10-08T00:51:41.740Z,76.78
2023-10-08T00:54:49.881Z,76.93
2023-10-08T00:57:58.441Z,76.58
2023-10-08T01:01:01.214Z,76.71
2023-10-08T01:04:12.295Z,76.92
2023-10-08T01:07:18.924Z,76.65
2023-10-08T01:10:21.354Z,76.82
2023-10-08T01:13:23.523Z,76.44
2023-10-08T01:16:27.786Z,76.73
2023-10-08T01:19:32.065Z,76.27
2023-10-08T01:22:33.949Z,76.39
2023-10-08T01:25:38.161Z,76.22
2023-10-08T01:28:41.036Z,76.05
2023-10-08T01:31:43.057Z,75.94
2023-10-08T01:34:45.842Z,75.86
2023-10-08T01:37:48.894Z,75.64
2023-10-08T01:40:51.793Z,75.60
2023-10-08T01:43:53.748Z,75.63
2023-10-08T01:46:58.876Z,75.23
2023-10-08T01:50:06.007Z,75.39
2023-10-08T01:53:10.517Z,75.35
2023-10-08T01:56:12.594Z,75.50
2023-10-08T01:59:16.326Z,75.75
2023-10-08T02:02:18.323Z,75.61
2023-10-08T02:05:21.581Z,75.70
2023-10-08T02:08:24.439Z,75.97
2023-10-08T02:11:28.201Z,76.02
2023-10-08T02:14:32.142Z,75.64
2023-10-08T02:17:35.275Z,76.01
2023-10-08T02:20:40.200Z,76.06
2023-10-08T02:23:44.223Z,76.53
2023-10-08T02:26:46.151Z,76.40
2023-10-08T02:29:48.185Z,76.33
2023-10-08T02:32:50.382Z,76.41
2023-10-08T02:35:54.073Z,76.81
2023-10-08T02:38:56.096Z,76.91
2023-10-08T02:42:00.357Z,76.69
2023-10-08T02:45:04.255Z,77.19
2023-10-08T02:48:12.491Z,77.01
2023-10-08T02:51:14.826Z,76.89
2023-10-08T02:54:31.834Z,77.29
2023-10-08T02:57:33.725Z,77.15
2023-10-08T03:00:35.972Z,77.00
2023-10-08T03:03:42.652Z,77.16
2023-10-08T03:06:49.880Z,77.08
2023-10-08T03:10:03.952Z,76.94
2023-10-08T03:13:06.972Z,77.28
2023-10-08T03:16:13.800Z,77.00
2023-10-08T03:19:19.941Z,76.97
2023-10-08T03:22:22.001Z,76.74
2023-10-08T03:25:25.132Z,76.98
2023-10-08T03:28:35.354Z,77.21
2023-10-08T03:31:49.482Z,77.00
2023-10-08T03:34:55.062Z,77.26
2023-10-08T03:38:16.988Z,77.15
2023-10-08T03:41:27.993Z,77.12
2023-10-08T03:44:30.248Z,77.08
2023-10-08T03:47:32.889Z,76.97
2023-10-08T03:50:43.060Z,76.97
2023-10-08T03:53:59.083Z,77.12
2023-10-08T03:57:01.569Z,77.16
2023-10-08T04:00:08.355Z,76.92
2023-10-08T04:03:24.107Z,76.54
2023-10-08T04:06:38.964Z,77.01
2023-10-08T04:09:42.824Z,76.99
2023-10-08T04:12:45.590Z,77.00
2023-10-08T04:15:47.690Z,76.70
2023-10-08T04:18:50.946Z,76.60
2023-10-08T04:21:56.775Z,76.46
2023-10-08T04:25:03.327Z,76.49
2023-10-08T04:28:06.757Z,76.34
2023-10-08T04:31:17.732Z,76.35
2023-10-08T04:34:22.840Z,76.46
2023-10-08T04:37:32.697Z,76.13
2023-10-08T04:40:48.452Z,75.34
2023-10-08T04:43:50.674Z,75.40
2023-10-08T04:46:53.492Z,74.33
2023-10-08T04:49:57.248Z,74.36
2023-10-08T04:52:59.097Z,73.83
2023-10-08T04:56:14.662Z,72.88
2023-10-08T04:59:23.239Z,72.49
2023-10-08T05:02:49.879Z,72.13
2023-10-08T05:06:06.931Z,71.49
2023-10-08T05:09:22.678Z,71.20
2023-10-08T05:12:33.460Z,70.70
2023-10-08T05:15:42.187Z,70.37
2023-10-08T05:19:14.662Z,70.20
2023-10-08T05:22:20.681Z,70.02
2023-10-08T05:25:35.711Z,69.49
2023-10-08T05:28:57.683Z,69.01
2023-10-08T05:32:25.900Z,68.93
2023-10-08T05:35:42.788Z,68.79
2023-10-08T05:39:01.139Z,69.10
2023-10-08T05:42:26.078Z,69.04
2023-10-08T05:45:33.853Z,69.33
2023-10-08T05:48:45.744Z,69.19
2023-10-08T05:51:47.928Z,68.98
2023-10-08T05:55:14.539Z,69.22
2023-10-08T05:58:19.100Z,69.12
2023-10-08T06:01:40.283Z,68.85
2023-10-08T06:05:04.892Z,68.66
2023-10-08T06:08:15.415Z,68.39
2023-10-08T06:11:37.393Z,68.01
2023-10-08T06:15:07.812Z,68.04
2023-10-08T06:18:09.943Z,67.50
2023-10-08T06:21:12.389Z,67.69
2023-10-08T06:24:17.556Z,67.05
2023-10-08T06:27:20.494Z,66.82
2023-10-08T06:30:25.218Z,66.09
2023-10-08T06:33:33.985Z,66.12
2023-10-08T06:36:36.334Z,65.41
2023-10-08T06:39:47.830Z,65.17
2023-10-08T06:42:52.127Z,64.87
2023-10-08T06:45:58.420Z,64.76
2023-10-08T06:49:03.170Z,64.32
2023-10-08T06:52:07.866Z,64.21
2023-10-08T06:55:13.539Z,64.78
2023-10-08T06:58:15.686Z,63.63
2023-10-08T07:01:25.412Z,63.09
2023-10-08T07:04:27.738Z,63.50
2023-10-08T07:07:32.550Z,62.81
2023-10-08T07:10:34.794Z,62.81
2023-10-08T07:13:37.719Z,62.48
2023-10-08T07:16:42.511Z,62.04
2023-10-08T07:19:47.791Z,61.64
2023-10-08T07:22:54.627Z,61.24
2023-10-08T07:26:11.407Z,60.88
2023-10-08T07:29:17.664Z,61.03
2023-10-08T07:32:19.589Z,59.59
2023-10-08T07:35:21.573Z,59.69
2023-10-08T07:38:28.092Z,59.12
2023-10-08T07:41:30.237Z,59.27
2023-10-08T07:44:36.166Z,58.91
2023-10-08T07:47:39.020Z,59.64
2023-10-08T07:50:42.531Z,59.55
2023-10-08T07:53:46.582Z,57.92
2023-10-08T07:57:00.068Z,57.17
2023-10-08T08:00:18.717Z,56.57
2023-10-08T08:03:21.589Z,57.31
2023-10-08T08:06:23.866Z,56.85
2023-10-08T08:09:26.975Z,56.90
2023-10-08T08:12:29.791Z,56.26
2023-10-08T08:15:36.647Z,55.38
2023-10-08T08:18:38.757Z,54.95
2023-10-08T08:21:45.648Z,55.64
2023-10-08T08:25:05.910Z,55.65
2023-10-08T08:28:17.421Z,55.43
2023-10-08T08:31:20.173Z,55.06
2023-10-08T08:34:22.180Z,54.97
2023-10-08T08:37:26.249Z,54.69
2023-10-08T08:40:28.114Z,55.04
2023-10-08T08:43:34.313Z,54.26
2023-10-08T08:46:38.396Z,53.64
2023-10-08T08:49:43.115Z,52.57
2023-10-08T08:52:48.747Z,53.90
2023-10-08T08:55:55.028Z,54.43
2023-10-08T08:59:00.128Z,55.27
2023-10-08T09:02:04.568Z,53.97
2023-10-08T09:05:25.987Z,53.06
2023-10-08T09:08:38.041Z,52.05
2023-10-08T09:11:43.524Z,51.64
2023-10-08T09:14:46.837Z,51.65
2023-10-08T09:17:49.843Z,51.60
2023-10-08T09:20:51.954Z,51.73
2023-10-08T09:23:54.986Z,51.43
2023-10-08T09:26:58.694Z,50.92
2023-10-08T09:30:08.983Z,50.13
2023-10-08T09:33:13.100Z,50.18
2023-10-08T09:36:16.344Z,49.47
2023-10-08T09:39:23.856Z,49.41
2023-10-08T09:42:26.309Z,47.36
2023-10-08T09:45:30.450Z,48.20
2023-10-08T09:48:38.294Z,48.33
2023-10-08T09:51:40.791Z,47.68
2023-10-08T09:54:59.969Z,48.74
2023-10-08T09:58:02.260Z,49.35
2023-10-08T10:01:04.956Z,48.30
2023-10-08T10:04:11.022Z,47.26
2023-10-08T10:07:17.393Z,46.66
2023-10-08T10:10:33.843Z,46.17
2023-10-08T10:13:45.004Z,46.74
2023-10-08T10:16:49.534Z,46.17
2023-10-08T10:20:01.066Z,46.31
2023-10-08T10:23:43.457Z,46.95
2023-10-08T10:26:49.861Z,47.93
2023-10-08T10:29:53.288Z,45.26
2023-10-08T10:33:00.592Z,44.24
2023-10-08T10:36:05.730Z,45.33
2023-10-08T10:39:16.505Z,44.95
2023-10-08T10:42:21.826Z,45.78
2023-10-08T10:45:40.847Z,44.90
2023-10-08T10:48:48.764Z,43.94
2023-10-08T10:51:57.958Z,42.37
2023-10-08T10:55:23.301Z,42.94
2023-10-08T10:58:26.563Z,43.38
2023-10-08T11:01:45.033Z,42.80
2023-10-08T11:04:48.121Z,42.58
2023-10-08T11:07:50.160Z,43.66
2023-10-08T11:10:53.813Z,42.16
2023-10-08T11:14:00.653Z,42.30
2023-10-08T11:17:23.300Z,43.18
2023-10-08T11:20:25.997Z,43.01
2023-10-08T11:23:42.045Z,42.40
2023-10-08T11:27:02.122Z,42.19
2023-10-08T11:30:11.578Z,42.32
2023-10-08T11:33:16.064Z,42.70
2023-10-08T11:36:21.005Z,40.65
2023-10-08T11:39:23.982Z,40.76
2023-10-08T11:42:33.501Z,40.39
2023-10-08T11:45:48.532Z,39.38
2023-10-08T11:48:51.100Z,38.92
2023-10-08T11:51:52.985Z,38.85
2023-10-08T11:54:55.000Z,38.90
2023-10-08T11:57:58.519Z,38.99
2023-10-08T12:01:04.111Z,38.87
2023-10-08T12:04:13.442Z,39.74
2023-10-08T12:07:17.861Z,39.31
2023-10-08T12:10:23.576Z,39.09
2023-10-08T12:13:25.567Z,39.44
2023-10-08T12:16:30.506Z,38.69
2023-10-08T12:19:32.885Z,38.33
2023-10-08T12:22:37.582Z,37.98
2023-10-08T12:25:39.874Z,37.15
2023-10-08T12:28:51.553Z,36.98
2023-10-08T12:31:53.980Z,37.00
2023-10-08T12:34:56.259Z,36.67
2023-10-08T12:37:58.303Z,36.61
2023-10-08T12:41:08.579Z,36.20
2023-10-08T12:44:12.137Z,36.60
2023-10-08T12:47:14.175Z,36.12
2023-10-08T12:50:23.720Z,36.15
2023-10-08T12:53:27.612Z,35.69
2023-10-08T12:56:36.311Z,35.79
2023-10-08T12:59:39.613Z,36.56
2023-10-08T13:02:42.874Z,35.04
2023-10-08T13:05:45.103Z,35.71
2023-10-08T13:08:47.263Z,36.20
2023-10-08T13:11:50.657Z,35.97
2023-10-08T13:14:52.689Z,36.75
2023-10-08T13:17:55.064Z,36.10
2023-10-08T13:20:58.386Z,36.08
2023-10-08T13:24:00.609Z,36.30
2023-10-08T13:27:06.107Z,36.49
2023-10-08T13:30:11.789Z,37.99
2023-10-08T13:33:13.735Z,36.50
2023-10-08T13:36:19.417Z,36.56
2023-10-08T13:39:21.942Z,36.89
2023-10-08T13:42:24.650Z,36.83
2023-10-08T13:45:27.301Z,36.67
2023-10-08T13:48:29.478Z,37.82
2023-10-08T13:51:33.779Z,38.20
2023-10-08T13:54:39.638Z,38.38
2023-10-08T13:57:45.087Z,37.69
2023-10-08T14:00:48.888Z,36.35
2023-10-08T14:03:56.652Z,37.28
2023-10-08T14:06:59.134Z,37.53
2023-10-08T14:10:06.045Z,37.58
2023-10-08T14:13:08.049Z,37.23
2023-10-08T14:16:11.808Z,37.12
2023-10-08T14:19:15.082Z,36.67
2023-10-08T14:22:17.827Z,37.79
2023-10-08T14:25:24.642Z,38.01
2023-10-08T14:28:41.015Z,37.05
2023-10-08T14:31:45.083Z,36.52
2023-10-08T14:34:47.001Z,37.37
2023-10-08T14:38:07.788Z,37.60
2023-10-08T14:41:28.402Z,36.71
2023-10-08T14:44:30.792Z,37.05
2023-10-08T14:47:32.719Z,36.86
2023-10-08T14:50:34.940Z,36.37
2023-10-08T14:53:39.127Z,36.71
2023-10-08T14:56:41.254Z,37.41
2023-10-08T14:59:43.403Z,37.41
2023-10-08T15:02:45.433Z,37.46
2023-10-08T15:05:49.069Z,37.67
2023-10-08T15:08:53.003Z,37.58
2023-10-08T15:11:55.011Z,36.81
2023-10-08T15:14:57.248Z,37.03
2023-10-08T15:17:59.567Z,37.14
2023-10-08T15:21:04.704Z,36.34
2023-10-08T15:24:12.400Z,35.89
2023-10-08T15:27:14.497Z,36.08
2023-10-08T15:30:21.346Z,35.95
2023-10-08T15:33:26.824Z,36.65
2023-10-08T15:36:29.091Z,36.69
2023-10-08T15:39:31.045Z,36.73
2023-10-08T15:42:37.420Z,36.37
2023-10-08T15:45:39.324Z,36.69
2023-10-08T15:48:41.414Z,37.56
2023-10-08T15:51:43.768Z,37.95
2023-10-08T15:54:46.377Z,37.81
2023-10-08T15:57:48.626Z,37.95
2023-10-08T16:00:50.504Z,38.46
2023-10-08T16:03:52.764Z,39.41
2023-10-08T16:06:55.062Z,39.16
2023-10-08T16:09:56.941Z,39.01
2023-10-08T16:12:58.852Z,39.58
2023-10-08T16:16:00.883Z,39.51
2023-10-08T16:19:03.118Z,40.08
2023-10-08T16:22:05.144Z,40.87
2023-10-08T16:25:08.002Z,40.44
2023-10-08T16:28:11.942Z,40.86
2023-10-08T16:31:14.321Z,41.03
2023-10-08T16:34:16.391Z,41.48
2023-10-08T16:37:22.255Z,41.57
2023-10-08T16:40:24.485Z,41.49
2023-10-08T16:43:26.470Z,41.45
2023-10-08T16:46:28.377Z,41.58
2023-10-08T16:49:30.687Z,42.40
2023-10-08T16:52:32.801Z,42.59
2023-10-08T16:55:34.953Z,42.58
2023-10-08T16:58:37.100Z,42.51
2023-10-08T17:01:39.001Z,42.52
2023-10-08T17:04:41.410Z,42.69
2023-10-08T17:07:47.109Z,42.87
2023-10-08T17:10:49.772Z,42.96
2023-10-08T17:13:52.232Z,43.18
2023-10-08T17:16:54.675Z,43.70
2023-10-08T17:19:57.124Z,43.93
2023-10-08T17:23:00.184Z,44.13
2023-10-08T17:26:02.593Z,44.21
2023-10-08T17:29:08.820Z,44.03
2023-10-08T17:32:11.378Z,44.07
2023-10-08T17:35:16.878Z,44.27
2023-10-08T17:38:20.342Z,44.73
2023-10-08T17:41:22.761Z,45.09
2023-10-08T17:44:27.622Z,45.06
2023-10-08T17:47:30.357Z,45.17
2023-10-08T17:50:36.763Z,44.97
2023-10-08T17:53:39.884Z,45.41
2023-10-08T17:56:42.549Z,45.48
2023-10-08T17:59:46.913Z,45.27
2023-10-08T18:02:50.858Z,45.60
2023-10-08T18:05:54.367Z,45.96
2023-10-08T18:08:57.007Z,45.59
2023-10-08T18:12:01.010Z,45.36
2023-10-08T18:15:04.974Z,45.93
2023-10-08T18:18:10.976Z,46.03
2023-10-08T18:21:17.279Z,46.02
2023-10-08T18:24:22.312Z,46.05
2023-10-08T18:27:24.923Z,46.12
2023-10-08T18:30:27.807Z,45.76
2023-10-08T18:33:30.728Z,45.96
2023-10-08T18:36:36.179Z,45.61
2023-10-08T18:39:38.671Z,45.86
2023-10-08T18:42:47.508Z,45.92
2023-10-08T18:45:50.405Z,46.46
2023-10-08T18:48:53.013Z,46.04
2023-10-08T18:51:55.894Z,46.02
2023-10-08T18:54:59.858Z,45.64
2023-10-08T18:58:04.805Z,46.22
2023-10-08T19:01:07.702Z,45.87
2023-10-08T19:04:10.631Z,46.27
2023-10-08T19:07:14.497Z,46.74
2023-10-08T19:10:17.086Z,47.13
2023-10-08T19:13:20.012Z,47.77
2023-10-08T19:16:25.429Z,47.83
2023-10-08T19:19:30.525Z,48.04
2023-10-08T19:22:33.045Z,47.90
2023-10-08T19:25:35.732Z,47.40
2023-10-08T19:28:39.144Z,47.56
2023-10-08T19:31:41.176Z,47.96
2023-10-08T19:34:45.009Z,48.31
2023-10-08T19:37:47.403Z,48.40
2023-10-08T19:40:49.287Z,48.51
2023-10-08T19:43:51.489Z,49.42
2023-10-08T19:46:53.522Z,49.41
2023-10-08T19:49:55.412Z,49.20
2023-10-08T19:52:58.043Z,49.62
2023-10-08T19:56:00.827Z,50.06
2023-10-08T19:59:03.321Z,49.75
2023-10-08T20:02:06.405Z,49.00
2023-10-08T20:05:12.686Z,49.43
2023-10-08T20:08:16.179Z,49.32
2023-10-08T20:11:18.412Z,49.78
2023-10-08T20:14:20.732Z,49.37
2023-10-08T20:17:22.659Z,49.54
2023-10-08T20:20:30.412Z,49.98
2023-10-08T20:23:36.146Z,50.08
2023-10-08T20:26:38.657Z,50.43
2023-10-08T20:29:40.551Z,50.59
2023-10-08T20:32:46.393Z,50.80
2023-10-08T20:35:52.616Z,51.18
2023-10-08T20:38:54.659Z,51.68
2023-10-08T20:41:57.299Z,51.71
2023-10-08T20:44:59.685Z,52.15
2023-10-08T20:48:01.989Z,52.42
2023-10-08T20:51:04.087Z,52.39
2023-10-08T20:54:06.427Z,52.45
2023-10-08T20:57:10.530Z,52.29
2023-10-08T21:00:29.187Z,52.31
2023-10-08T21:03:31.980Z,52.71
2023-10-08T21:06:34.169Z,53.00
2023-10-08T21:09:36.348Z,53.09
2023-10-08T21:12:42.832Z,52.98
2023-10-08T21:15:45.484Z,53.41
2023-10-08T21:18:49.807Z,53.27
2023-10-08T21:21:53.277Z,53.30
2023-10-08T21:24:55.183Z,53.37
2023-10-08T21:27:58.292Z,53.18
2023-10-08T21:31:07.521Z,53.42
2023-10-08T21:34:09.863Z,53.49
2023-10-08T21:37:11.914Z,53.59
2023-10-08T21:40:16.300Z,53.95
2023-10-08T21:43:18.157Z,53.98
2023-10-08T21:46:22.459Z,54.19
2023-10-08T21:49:24.455Z,54.23
2023-10-08T21:52:28.102Z,54.47
2023-10-08T21:55:30.399Z,54.60
2023-10-08T21:58:34.089Z,54.64
2023-10-08T22:01:38.638Z,54.69
2023-10-08T22:04:40.640Z,54.79
2023-10-08T22:07:44.589Z,55.45
2023-10-08T22:10:46.615Z,56.10
2023-10-08T22:13:49.221Z,56.42
2023-10-08T22:16:52.676Z,55.93
2023-10-08T22:19:56.397Z,56.42
2023-10-08T22:22:58.358Z,56.49
2023-10-08T22:26:00.307Z,56.49
2023-10-08T22:29:03.275Z,56.84
2023-10-08T22:32:08.749Z,56.88
2023-10-08T22:35:16.526Z,57.30
2023-10-08T22:38:18.454Z,57.31
2023-10-08T22:41:23.231Z,57.23
2023-10-08T22:44:29.693Z,57.72
2023-10-08T22:47:33.226Z,58.00
2023-10-08T22:50:42.126Z,57.89
2023-10-08T22:53:44.449Z,58.02
2023-10-08T22:56:46.550Z,58.65
2023-10-08T22:59:49.612Z,58.86
2023-10-08T23:02:51.917Z,59.45
2023-10-08T23:05:54.128Z,59.57
2023-10-08T23:08:59.815Z,59.68
2023-10-08T23:12:01.965Z,59.88
2023-10-08T23:15:05.064Z,60.15
2023-10-08T23:18:08.206Z,60.51
2023-10-08T23:21:11.994Z,60.88
2023-10-08T23:24:15.467Z,61.07
2023-10-08T23:27:18.184Z,60.98
2023-10-08T23:30:20.595Z,61.18
2023-10-08T23:33:23.498Z,61.42
2023-10-08T23:36:44.289Z,61.51
2023-10-08T23:39:46.163Z,61.29
2023-10-08T23:42:51.634Z,61.85
2023-10-08T23:46:00.498Z,61.96
2023-10-08T23:49:16.413Z,62.12
2023-10-08T23:52:22.736Z,62.01
2023-10-08T23:55:25.974Z,62.13
2023-10-08T23:58:31.701Z,62.32
